AirNav   Advertisement
 
 1470 users online  

VG05 Payne Airport
Tabscott, Virginia, USA

GOING TO TABSCOTT?


FAA INFORMATION EFFECTIVE 20 JULY 2017

Location

FAA Identifier: VG05
Lat/Long: 37-52-46.5120N / 078-03-26.9970W
37-52.775200N / 078-03.449950W
37.8795867 / -78.0574992
(estimated)
Elevation: 463 ft. / 141 m (estimated)
Variation: 09W (1995)
From city: 3 miles NE of TABSCOTT, VA
Time zone: UTC -4 (UTC -5 during Standard Time)
Zip code: 23084

Airport Operations

Airport use: Private use. Permission required prior to landing
Activation date: 09/1997
Control tower: no
ARTCC: WASHINGTON CENTER
FSS: LEESBURG FLIGHT SERVICE STATION
Attendance: UNATNDD
Segmented circle: no

Airport Communications

WX AWOS-3 at LKU (9 nm NE): 119.475 (540-967-1983)
WX AWOS-3 at 7W4 (16 nm E): 120.775 (540-872-0303)
WX AWOS-3 at GVE (17 nm N): 120.225 (540-832-2095)

Nearby radio navigation aids

VOR radial/distance  VOR name  Freq  Var
GVEr157/9.2GORDONSVILLE VORTAC115.6006W
FAKr339/23.7FLAT ROCK VORTAC113.3006W

 
NDB name  Hdg/Dist  Freq  Var  ID
NAILR202/35.235110WMSQ -- ... --.-
FARMVILLE039/36.436709WFVX ..-. ...- -..-
SHANNON241/36.923710WEZF . --.. ..-.

Airport Services

Runway Information

Runway 8/26

Dimensions: 2300 x 135 ft. / 701 x 41 m
Surface: turf, in good condition
RUNWAY 8  RUNWAY 26
Traffic pattern: leftleft
Obstructions: 50 ft. trees, 500 ft. from runway50 ft. trees, 500 ft. from runway

Airport Ownership and Management from official FAA records

Ownership: Privately-owned
Owner: NORMAN CALL
P.O. BOX 10
CROZIER, VA 23039
Phone 804-784-3797
Manager: NORMAN CALL
P.O. BOX 10
CROZIER, VA 23039
Phone 804-457-3987

Airport Operational Statistics

Aircraft based on the field: 1
Single engine airplanes: 1
    

Instrument Procedures

There are no published instrument procedures at VG05.

Some nearby airports with instrument procedures:

KLKU - Louisa County Airport/Freeman Field (9 nm NE)
7W4 - Lake Anna Airport (16 nm E)
KGVE - Gordonsville Municipal Airport (17 nm N)
KOMH - Orange County Airport (22 nm N)
KCHO - Charlottesville-Albemarle Airport (24 nm NW)
 
Loc | Ops | Rwys | IFR | FBO | Links
Com | Nav | Svcs | Stats | Notes


 
Area around VG05 (Payne Airport)
 
Road maps at: MapQuest Bing Google
 
Aerial photo
No photo
 
Sectional chart

 
Airport distance calculator
Flying to Payne Airport? Find the distance to fly.

From to VG05

Sunrise and sunset
Times for 24-Jul-2017
 Local
(UTC-4)
 Zulu
(UTC)
Morning civil twilight05:4009:40
Sunrise06:1010:10
Sunset20:2800:28
Evening civil twilight20:5700:57

Current date and time
Zulu (UTC)  24-Jul-2017 21:25:11
Local (UTC-4)  24-Jul-2017 17:25:11
 
METAR
KLKU 
9nm NE 
242055Z AUTO 23004KT 10SM CLR 32/17 A2984 RMK AO2
K7W4 
16nm E 
242055Z AUTO 21007KT 190V250 10SM CLR 33/21 A2983 RMK AO1 T03250212
KGVE 
17nm N 
242055Z AUTO 19009KT 10SM SCT050 SCT060 SCT100 32/21 A2982 RMK AO1 T03180209
TAF
KCHO 
24nm NW 
242012Z 2420/2518 21007KT 4SM SHRA OVC050 FM242100 17010KT P6SM FEW060 FM250300 VRB03KT P6SM FEW250
NOTAMs
Click for the latest NOTAMs
NOTAMs are issued by the DoD/FAA and will open in a separate window not controlled by AirNav.

 

 
 

Would you like to see your business listed on this page?

 If your business provides an interesting product or service to pilots, flight crews, aircraft, or users of the Payne Airport, you should consider listing it here.  To start the listing process, click on the button below
 
Add a business
 

Other Pages about Payne Airport

Update a link
 
Copyright © AirNav, LLC. All rights reserved. Privacy Policy  Contact